sensor_id;sensor_type;location;lat;lon;timestamp;P1;durP1;ratioP1;P2;durP2;ratioP2
6394;SDS011;3230;42.588;23.358;2023-05-10T00:01:03;4.30;;;3.50;;
6394;SDS011;3230;42.588;23.358;2023-05-10T00:03:29;5.37;;;3.90;;
6394;SDS011;3230;42.588;23.358;2023-05-10T00:05:54;4.07;;;3.40;;
6394;SDS011;3230;42.588;23.358;2023-05-10T00:08:19;4.60;;;3.30;;
6394;SDS011;3230;42.588;23.358;2023-05-10T00:10:45;4.53;;;3.60;;
6394;SDS011;3230;42.588;23.358;2023-05-10T00:13:10;4.70;;;3.60;;
6394;SDS011;3230;42.588;23.358;2023-05-10T00:15:35;5.23;;;4.13;;
6394;SDS011;3230;42.588;23.358;2023-05-10T00:18:01;5.00;;;4.03;;
6394;SDS011;3230;42.588;23.358;2023-05-10T00:20:26;4.40;;;3.30;;
6394;SDS011;3230;42.588;23.358;2023-05-10T00:22:52;4.60;;;3.83;;
6394;SDS011;3230;42.588;23.358;2023-05-10T00:25:17;4.77;;;3.83;;
6394;SDS011;3230;42.588;23.358;2023-05-10T00:27:43;5.20;;;3.97;;
6394;SDS011;3230;42.588;23.358;2023-05-10T00:30:09;4.70;;;3.65;;
6394;SDS011;3230;42.588;23.358;2023-05-10T00:32:34;4.47;;;3.40;;
6394;SDS011;3230;42.588;23.358;2023-05-10T00:35:00;4.50;;;3.67;;
6394;SDS011;3230;42.588;23.358;2023-05-10T00:37:26;4.87;;;4.07;;
6394;SDS011;3230;42.588;23.358;2023-05-10T00:39:51;5.10;;;4.13;;
6394;SDS011;3230;42.588;23.358;2023-05-10T00:42:16;5.20;;;4.00;;
6394;SDS011;3230;42.588;23.358;2023-05-10T00:44:42;3.90;;;3.50;;
6394;SDS011;3230;42.588;23.358;2023-05-10T00:47:07;5.00;;;3.63;;
6394;SDS011;3230;42.588;23.358;2023-05-10T00:49:34;4.40;;;3.50;;
6394;SDS011;3230;42.588;23.358;2023-05-10T00:52:00;4.33;;;3.80;;
6394;SDS011;3230;42.588;23.358;2023-05-10T00:54:27;6.57;;;4.20;;
6394;SDS011;3230;42.588;23.358;2023-05-10T00:56:52;6.37;;;4.07;;
6394;SDS011;3230;42.588;23.358;2023-05-10T00:59:18;5.27;;;3.80;;
6394;SDS011;3230;42.588;23.358;2023-05-10T01:01:45;5.57;;;4.30;;
6394;SDS011;3230;42.588;23.358;2023-05-10T01:04:14;4.80;;;4.23;;
6394;SDS011;3230;42.588;23.358;2023-05-10T01:06:40;5.90;;;5.10;;
6394;SDS011;3230;42.588;23.358;2023-05-10T01:09:06;6.10;;;4.33;;
6394;SDS011;3230;42.588;23.358;2023-05-10T01:11:33;6.60;;;5.43;;
6394;SDS011;3230;42.588;23.358;2023-05-10T01:14:00;5.30;;;4.47;;
6394;SDS011;3230;42.588;23.358;2023-05-10T01:16:27;5.87;;;5.00;;
6394;SDS011;3230;42.588;23.358;2023-05-10T01:18:54;4.87;;;4.17;;
6394;SDS011;3230;42.588;23.358;2023-05-10T01:43:36;4.60;;;3.60;;
6394;SDS011;3230;42.588;23.358;2023-05-10T01:46:09;4.33;;;3.87;;
6394;SDS011;3230;42.588;23.358;2023-05-10T01:48:42;5.10;;;3.70;;
6394;SDS011;3230;42.588;23.358;2023-05-10T01:51:17;4.13;;;3.15;;
6394;SDS011;3230;42.588;23.358;2023-05-10T01:53:47;4.87;;;3.50;;
6394;SDS011;3230;42.588;23.358;2023-05-10T01:56:14;4.63;;;3.97;;
6394;SDS011;3230;42.588;23.358;2023-05-10T01:58:40;5.20;;;3.90;;
6394;SDS011;3230;42.588;23.358;2023-05-10T02:01:11;5.25;;;4.10;;
6394;SDS011;3230;42.588;23.358;2023-05-10T02:03:38;3.90;;;3.10;;
6394;SDS011;3230;42.588;23.358;2023-05-10T02:06:06;7.80;;;5.35;;
6394;SDS011;3230;42.588;23.358;2023-05-10T02:08:35;4.20;;;3.00;;
6394;SDS011;3230;42.588;23.358;2023-05-10T02:11:01;4.30;;;3.08;;
6394;SDS011;3230;42.588;23.358;2023-05-10T02:13:28;3.72;;;3.00;;
6394;SDS011;3230;42.588;23.358;2023-05-10T02:15:56;4.82;;;4.00;;
6394;SDS011;3230;42.588;23.358;2023-05-10T02:18:23;3.88;;;2.95;;
6394;SDS011;3230;42.588;23.358;2023-05-10T02:20:50;6.43;;;3.40;;
6394;SDS011;3230;42.588;23.358;2023-05-10T02:23:18;3.70;;;2.70;;
6394;SDS011;3230;42.588;23.358;2023-05-10T02:25:45;7.63;;;3.20;;
6394;SDS011;3230;42.588;23.358;2023-05-10T02:28:13;3.83;;;3.08;;
6394;SDS011;3230;42.588;23.358;2023-05-10T02:30:40;6.97;;;4.15;;
6394;SDS011;3230;42.588;23.358;2023-05-10T02:33:07;4.30;;;3.58;;
6394;SDS011;3230;42.588;23.358;2023-05-10T02:35:33;5.50;;;3.60;;
6394;SDS011;3230;42.588;23.358;2023-05-10T02:38:00;6.65;;;4.00;;
6394;SDS011;3230;42.588;23.358;2023-05-10T02:40:26;5.90;;;4.30;;
6394;SDS011;3230;42.588;23.358;2023-05-10T02:42:54;5.38;;;4.10;;
6394;SDS011;3230;42.588;23.358;2023-05-10T02:45:23;6.32;;;4.43;;
6394;SDS011;3230;42.588;23.358;2023-05-10T02:47:51;5.00;;;4.00;;
6394;SDS011;3230;42.588;23.358;2023-05-10T02:50:17;11.02;;;5.35;;
6394;SDS011;3230;42.588;23.358;2023-05-10T02:52:44;6.05;;;4.15;;
6394;SDS011;3230;42.588;23.358;2023-05-10T02:55:14;4.10;;;3.35;;
6394;SDS011;3230;42.588;23.358;2023-05-10T02:57:43;5.10;;;3.45;;
6394;SDS011;3230;42.588;23.358;2023-05-10T03:00:22;7.00;;;4.60;;
6394;SDS011;3230;42.588;23.358;2023-05-10T03:02:47;5.03;;;3.60;;
6394;SDS011;3230;42.588;23.358;2023-05-10T03:05:12;4.20;;;3.67;;
6394;SDS011;3230;42.588;23.358;2023-05-10T03:07:38;12.40;;;8.77;;
6394;SDS011;3230;42.588;23.358;2023-05-10T03:10:04;7.17;;;5.13;;
6394;SDS011;3230;42.588;23.358;2023-05-10T03:12:37;7.13;;;4.90;;
6394;SDS011;3230;42.588;23.358;2023-05-10T03:17:52;6.30;;;4.60;;
6394;SDS011;3230;42.588;23.358;2023-05-10T03:20:24;4.80;;;3.75;;
6394;SDS011;3230;42.588;23.358;2023-05-10T03:23:02;5.53;;;4.53;;
6394;SDS011;3230;42.588;23.358;2023-05-10T03:25:37;5.85;;;4.20;;
6394;SDS011;3230;42.588;23.358;2023-05-10T03:28:03;6.67;;;3.80;;
6394;SDS011;3230;42.588;23.358;2023-05-10T03:30:29;3.55;;;3.08;;
6394;SDS011;3230;42.588;23.358;2023-05-10T03:32:55;5.00;;;4.10;;
6394;SDS011;3230;42.588;23.358;2023-05-10T03:35:21;4.57;;;3.72;;
6394;SDS011;3230;42.588;23.358;2023-05-10T03:37:48;5.57;;;4.00;;
6394;SDS011;3230;42.588;23.358;2023-05-10T03:40:14;4.60;;;3.50;;
6394;SDS011;3230;42.588;23.358;2023-05-10T03:42:40;4.53;;;3.35;;
6394;SDS011;3230;42.588;23.358;2023-05-10T03:45:06;9.20;;;5.40;;
6394;SDS011;3230;42.588;23.358;2023-05-10T03:47:32;4.50;;;3.50;;
6394;SDS011;3230;42.588;23.358;2023-05-10T03:49:57;5.97;;;3.97;;
6394;SDS011;3230;42.588;23.358;2023-05-10T03:52:22;9.20;;;3.70;;
6394;SDS011;3230;42.588;23.358;2023-05-10T03:54:48;4.97;;;4.00;;
6394;SDS011;3230;42.588;23.358;2023-05-10T03:57:13;4.77;;;3.53;;
6394;SDS011;3230;42.588;23.358;2023-05-10T03:59:38;4.60;;;3.47;;
6394;SDS011;3230;42.588;23.358;2023-05-10T04:02:04;5.00;;;3.77;;
6394;SDS011;3230;42.588;23.358;2023-05-10T04:04:30;7.15;;;4.50;;
6394;SDS011;3230;42.588;23.358;2023-05-10T04:06:56;5.28;;;3.90;;
6394;SDS011;3230;42.588;23.358;2023-05-10T04:09:21;8.60;;;4.83;;
6394;SDS011;3230;42.588;23.358;2023-05-10T04:11:47;6.50;;;4.20;;
6394;SDS011;3230;42.588;23.358;2023-05-10T04:14:12;4.80;;;3.87;;
6394;SDS011;3230;42.588;23.358;2023-05-10T04:16:37;5.33;;;4.10;;
6394;SDS011;3230;42.588;23.358;2023-05-10T04:19:03;4.73;;;4.23;;
6394;SDS011;3230;42.588;23.358;2023-05-10T04:21:28;5.20;;;4.40;;
6394;SDS011;3230;42.588;23.358;2023-05-10T04:23:54;5.83;;;4.50;;
6394;SDS011;3230;42.588;23.358;2023-05-10T04:26:19;7.57;;;4.30;;
6394;SDS011;3230;42.588;23.358;2023-05-10T04:28:45;6.90;;;4.43;;
6394;SDS011;3230;42.588;23.358;2023-05-10T04:31:10;6.70;;;4.30;;
6394;SDS011;3230;42.588;23.358;2023-05-10T04:33:36;5.10;;;4.30;;
6394;SDS011;3230;42.588;23.358;2023-05-10T04:36:02;6.13;;;4.53;;
6394;SDS011;3230;42.588;23.358;2023-05-10T04:38:28;13.07;;;8.35;;
6394;SDS011;3230;42.588;23.358;2023-05-10T04:41:04;5.55;;;3.85;;
6394;SDS011;3230;42.588;23.358;2023-05-10T04:43:33;4.75;;;3.90;;
6394;SDS011;3230;42.588;23.358;2023-05-10T04:45:59;4.60;;;3.47;;
6394;SDS011;3230;42.588;23.358;2023-05-10T04:48:24;5.47;;;4.40;;
6394;SDS011;3230;42.588;23.358;2023-05-10T04:50:50;5.20;;;4.30;;
6394;SDS011;3230;42.588;23.358;2023-05-10T04:53:15;5.90;;;4.23;;
6394;SDS011;3230;42.588;23.358;2023-05-10T04:55:41;12.33;;;7.80;;
6394;SDS011;3230;42.588;23.358;2023-05-10T04:58:07;18.08;;;10.27;;
6394;SDS011;3230;42.588;23.358;2023-05-10T05:00:33;11.03;;;7.43;;
6394;SDS011;3230;42.588;23.358;2023-05-10T05:02:58;27.25;;;13.80;;
6394;SDS011;3230;42.588;23.358;2023-05-10T05:05:24;20.83;;;11.50;;
6394;SDS011;3230;42.588;23.358;2023-05-10T05:07:49;24.40;;;13.30;;
6394;SDS011;3230;42.588;23.358;2023-05-10T05:10:15;26.47;;;13.53;;
6394;SDS011;3230;42.588;23.358;2023-05-10T05:12:40;20.20;;;9.13;;
6394;SDS011;3230;42.588;23.358;2023-05-10T05:15:06;19.97;;;10.00;;
6394;SDS011;3230;42.588;23.358;2023-05-10T05:17:34;14.02;;;7.85;;
6394;SDS011;3230;42.588;23.358;2023-05-10T05:19:59;20.37;;;9.63;;
6394;SDS011;3230;42.588;23.358;2023-05-10T05:22:25;15.30;;;8.50;;
6394;SDS011;3230;42.588;23.358;2023-05-10T05:24:57;14.13;;;8.35;;
6394;SDS011;3230;42.588;23.358;2023-05-10T05:27:23;8.60;;;5.47;;
6394;SDS011;3230;42.588;23.358;2023-05-10T05:29:52;7.88;;;4.68;;
6394;SDS011;3230;42.588;23.358;2023-05-10T05:32:18;10.68;;;6.47;;
6394;SDS011;3230;42.588;23.358;2023-05-10T05:34:44;13.90;;;7.43;;
6394;SDS011;3230;42.588;23.358;2023-05-10T05:37:14;10.75;;;7.03;;
6394;SDS011;3230;42.588;23.358;2023-05-10T05:39:40;11.35;;;7.05;;
6394;SDS011;3230;42.588;23.358;2023-05-10T05:42:05;8.77;;;5.80;;
6394;SDS011;3230;42.588;23.358;2023-05-10T05:44:30;12.93;;;7.63;;
6394;SDS011;3230;42.588;23.358;2023-05-10T05:46:56;10.80;;;6.97;;
6394;SDS011;3230;42.588;23.358;2023-05-10T05:49:22;14.37;;;7.90;;
6394;SDS011;3230;42.588;23.358;2023-05-10T05:51:47;10.20;;;7.20;;
6394;SDS011;3230;42.588;23.358;2023-05-10T05:54:15;13.63;;;9.10;;
6394;SDS011;3230;42.588;23.358;2023-05-10T05:56:40;12.10;;;7.60;;
6394;SDS011;3230;42.588;23.358;2023-05-10T05:59:06;14.07;;;8.27;;
6394;SDS011;3230;42.588;23.358;2023-05-10T06:01:31;12.53;;;6.97;;
6394;SDS011;3230;42.588;23.358;2023-05-10T06:03:57;11.00;;;7.63;;
6394;SDS011;3230;42.588;23.358;2023-05-10T06:06:22;11.23;;;7.20;;
6394;SDS011;3230;42.588;23.358;2023-05-10T06:08:48;13.80;;;7.47;;
6394;SDS011;3230;42.588;23.358;2023-05-10T06:11:13;12.40;;;7.50;;
6394;SDS011;3230;42.588;23.358;2023-05-10T06:13:38;12.17;;;8.13;;
6394;SDS011;3230;42.588;23.358;2023-05-10T06:16:04;14.93;;;9.53;;
6394;SDS011;3230;42.588;23.358;2023-05-10T06:18:29;10.20;;;7.07;;
6394;SDS011;3230;42.588;23.358;2023-05-10T06:20:55;9.67;;;6.43;;
6394;SDS011;3230;42.588;23.358;2023-05-10T06:23:21;11.10;;;7.97;;
6394;SDS011;3230;42.588;23.358;2023-05-10T06:25:47;13.15;;;7.72;;
6394;SDS011;3230;42.588;23.358;2023-05-10T06:28:12;11.07;;;7.37;;
6394;SDS011;3230;42.588;23.358;2023-05-10T06:30:38;12.10;;;8.27;;
6394;SDS011;3230;42.588;23.358;2023-05-10T06:33:03;12.97;;;7.90;;
6394;SDS011;3230;42.588;23.358;2023-05-10T06:35:29;14.43;;;8.73;;
6394;SDS011;3230;42.588;23.358;2023-05-10T06:37:54;14.70;;;8.73;;
6394;SDS011;3230;42.588;23.358;2023-05-10T06:40:20;14.33;;;7.93;;
6394;SDS011;3230;42.588;23.358;2023-05-10T06:42:46;11.70;;;8.03;;
6394;SDS011;3230;42.588;23.358;2023-05-10T06:45:13;11.65;;;7.63;;
6394;SDS011;3230;42.588;23.358;2023-05-10T06:47:40;12.70;;;7.67;;
6394;SDS011;3230;42.588;23.358;2023-05-10T06:50:06;11.60;;;6.90;;
6394;SDS011;3230;42.588;23.358;2023-05-10T06:52:33;10.23;;;7.65;;
6394;SDS011;3230;42.588;23.358;2023-05-10T06:54:58;14.90;;;8.17;;
6394;SDS011;3230;42.588;23.358;2023-05-10T06:57:25;12.50;;;7.90;;
6394;SDS011;3230;42.588;23.358;2023-05-10T06:59:50;11.13;;;6.90;;
6394;SDS011;3230;42.588;23.358;2023-05-10T07:02:17;10.45;;;7.32;;
6394;SDS011;3230;42.588;23.358;2023-05-10T07:04:43;11.68;;;7.80;;
6394;SDS011;3230;42.588;23.358;2023-05-10T07:07:08;10.63;;;7.23;;
6394;SDS011;3230;42.588;23.358;2023-05-10T07:09:34;11.40;;;6.87;;
6394;SDS011;3230;42.588;23.358;2023-05-10T07:11:59;13.80;;;8.60;;
6394;SDS011;3230;42.588;23.358;2023-05-10T07:14:26;19.77;;;8.80;;
6394;SDS011;3230;42.588;23.358;2023-05-10T07:16:52;11.10;;;7.00;;
6394;SDS011;3230;42.588;23.358;2023-05-10T07:19:18;10.40;;;6.20;;
6394;SDS011;3230;42.588;23.358;2023-05-10T07:21:43;12.60;;;7.00;;
6394;SDS011;3230;42.588;23.358;2023-05-10T07:24:09;9.53;;;6.53;;
6394;SDS011;3230;42.588;23.358;2023-05-10T07:26:34;12.27;;;7.40;;
6394;SDS011;3230;42.588;23.358;2023-05-10T07:28:59;12.20;;;7.03;;
6394;SDS011;3230;42.588;23.358;2023-05-10T07:31:25;9.57;;;5.93;;
6394;SDS011;3230;42.588;23.358;2023-05-10T07:33:50;12.50;;;8.03;;
6394;SDS011;3230;42.588;23.358;2023-05-10T07:36:16;14.87;;;8.87;;
6394;SDS011;3230;42.588;23.358;2023-05-10T07:38:41;12.63;;;7.77;;
6394;SDS011;3230;42.588;23.358;2023-05-10T07:41:06;14.97;;;8.57;;
6394;SDS011;3230;42.588;23.358;2023-05-10T07:43:32;10.23;;;6.33;;
6394;SDS011;3230;42.588;23.358;2023-05-10T07:45:57;10.23;;;6.63;;
6394;SDS011;3230;42.588;23.358;2023-05-10T07:48:24;11.40;;;6.73;;
6394;SDS011;3230;42.588;23.358;2023-05-10T07:50:50;11.50;;;6.80;;
6394;SDS011;3230;42.588;23.358;2023-05-10T07:53:16;7.97;;;5.93;;
6394;SDS011;3230;42.588;23.358;2023-05-10T07:55:41;12.77;;;8.17;;
6394;SDS011;3230;42.588;23.358;2023-05-10T07:58:07;14.90;;;7.90;;
6394;SDS011;3230;42.588;23.358;2023-05-10T08:00:33;14.87;;;6.43;;
6394;SDS011;3230;42.588;23.358;2023-05-10T08:02:58;13.53;;;7.63;;
6394;SDS011;3230;42.588;23.358;2023-05-10T08:05:24;10.40;;;6.67;;
6394;SDS011;3230;42.588;23.358;2023-05-10T08:07:49;13.13;;;6.97;;
6394;SDS011;3230;42.588;23.358;2023-05-10T08:10:15;17.27;;;9.17;;
6394;SDS011;3230;42.588;23.358;2023-05-10T08:12:40;13.10;;;7.97;;
6394;SDS011;3230;42.588;23.358;2023-05-10T08:15:06;12.73;;;7.40;;
6394;SDS011;3230;42.588;23.358;2023-05-10T08:17:32;15.98;;;9.95;;
6394;SDS011;3230;42.588;23.358;2023-05-10T08:19:57;16.33;;;9.60;;
6394;SDS011;3230;42.588;23.358;2023-05-10T08:22:22;14.83;;;8.20;;
6394;SDS011;3230;42.588;23.358;2023-05-10T08:24:48;15.03;;;9.37;;
6394;SDS011;3230;42.588;23.358;2023-05-10T08:27:13;13.23;;;7.30;;
6394;SDS011;3230;42.588;23.358;2023-05-10T08:29:39;13.43;;;8.67;;
6394;SDS011;3230;42.588;23.358;2023-05-10T08:32:04;12.30;;;7.87;;
6394;SDS011;3230;42.588;23.358;2023-05-10T08:34:29;13.33;;;8.10;;
6394;SDS011;3230;42.588;23.358;2023-05-10T08:36:56;13.77;;;8.60;;
6394;SDS011;3230;42.588;23.358;2023-05-10T08:39:21;15.00;;;9.80;;
6394;SDS011;3230;42.588;23.358;2023-05-10T08:41:48;15.80;;;9.10;;
6394;SDS011;3230;42.588;23.358;2023-05-10T08:44:18;13.27;;;8.40;;
6394;SDS011;3230;42.588;23.358;2023-05-10T08:46:45;20.80;;;12.85;;
6394;SDS011;3230;42.588;23.358;2023-05-10T08:49:13;20.83;;;11.50;;
6394;SDS011;3230;42.588;23.358;2023-05-10T08:51:44;19.60;;;11.13;;
6394;SDS011;3230;42.588;23.358;2023-05-10T08:54:16;23.87;;;13.43;;
6394;SDS011;3230;42.588;23.358;2023-05-10T08:56:42;21.50;;;11.83;;
6394;SDS011;3230;42.588;23.358;2023-05-10T08:59:07;23.80;;;14.23;;
6394;SDS011;3230;42.588;23.358;2023-05-10T09:01:34;18.10;;;10.00;;
6394;SDS011;3230;42.588;23.358;2023-05-10T09:04:01;19.47;;;10.40;;
6394;SDS011;3230;42.588;23.358;2023-05-10T09:06:27;17.88;;;10.65;;
6394;SDS011;3230;42.588;23.358;2023-05-10T09:08:53;13.70;;;8.00;;
6394;SDS011;3230;42.588;23.358;2023-05-10T09:11:19;18.70;;;10.30;;
6394;SDS011;3230;42.588;23.358;2023-05-10T09:13:45;15.33;;;8.80;;
6394;SDS011;3230;42.588;23.358;2023-05-10T09:16:13;15.87;;;10.00;;
6394;SDS011;3230;42.588;23.358;2023-05-10T09:18:38;13.60;;;8.67;;
6394;SDS011;3230;42.588;23.358;2023-05-10T09:21:03;13.07;;;8.73;;
6394;SDS011;3230;42.588;23.358;2023-05-10T09:23:29;14.93;;;9.10;;
6394;SDS011;3230;42.588;23.358;2023-05-10T09:26:06;13.67;;;8.97;;
6394;SDS011;3230;42.588;23.358;2023-05-10T09:28:49;18.93;;;10.70;;
6394;SDS011;3230;42.588;23.358;2023-05-10T09:31:16;15.93;;;8.67;;
6394;SDS011;3230;42.588;23.358;2023-05-10T09:33:45;17.13;;;11.00;;
6394;SDS011;3230;42.588;23.358;2023-05-10T09:36:11;18.20;;;10.83;;
6394;SDS011;3230;42.588;23.358;2023-05-10T09:38:50;19.17;;;12.17;;
6394;SDS011;3230;42.588;23.358;2023-05-10T09:41:23;16.77;;;9.17;;
6394;SDS011;3230;42.588;23.358;2023-05-10T09:43:50;17.83;;;10.27;;
6394;SDS011;3230;42.588;23.358;2023-05-10T09:46:21;10.00;;;7.43;;
6394;SDS011;3230;42.588;23.358;2023-05-10T09:48:47;11.67;;;7.90;;
6394;SDS011;3230;42.588;23.358;2023-05-10T09:51:19;15.33;;;9.53;;
6394;SDS011;3230;42.588;23.358;2023-05-10T09:53:46;12.60;;;8.60;;
6394;SDS011;3230;42.588;23.358;2023-05-10T09:56:12;14.50;;;9.20;;
6394;SDS011;3230;42.588;23.358;2023-05-10T09:58:37;22.83;;;10.80;;
6394;SDS011;3230;42.588;23.358;2023-05-10T10:01:03;15.23;;;9.03;;
6394;SDS011;3230;42.588;23.358;2023-05-10T10:03:28;13.10;;;8.90;;
6394;SDS011;3230;42.588;23.358;2023-05-10T10:05:55;12.93;;;9.33;;
6394;SDS011;3230;42.588;23.358;2023-05-10T10:08:21;15.90;;;10.30;;
6394;SDS011;3230;42.588;23.358;2023-05-10T10:10:46;11.97;;;8.60;;
6394;SDS011;3230;42.588;23.358;2023-05-10T10:13:12;14.33;;;9.83;;
6394;SDS011;3230;42.588;23.358;2023-05-10T10:15:38;12.93;;;9.13;;
6394;SDS011;3230;42.588;23.358;2023-05-10T10:18:04;12.97;;;8.50;;
6394;SDS011;3230;42.588;23.358;2023-05-10T10:20:30;11.40;;;8.87;;
6394;SDS011;3230;42.588;23.358;2023-05-10T10:22:56;14.00;;;9.70;;
6394;SDS011;3230;42.588;23.358;2023-05-10T10:25:21;14.17;;;8.53;;
6394;SDS011;3230;42.588;23.358;2023-05-10T10:27:49;10.90;;;7.87;;
6394;SDS011;3230;42.588;23.358;2023-05-10T10:35:29;14.33;;;10.33;;
6394;SDS011;3230;42.588;23.358;2023-05-10T10:37:56;12.77;;;8.25;;
6394;SDS011;3230;42.588;23.358;2023-05-10T10:42:54;15.13;;;9.70;;
6394;SDS011;3230;42.588;23.358;2023-05-10T10:45:20;13.23;;;8.77;;
6394;SDS011;3230;42.588;23.358;2023-05-10T10:47:47;11.97;;;8.43;;
6394;SDS011;3230;42.588;23.358;2023-05-10T10:50:13;13.00;;;8.80;;
6394;SDS011;3230;42.588;23.358;2023-05-10T10:52:41;10.80;;;8.27;;
6394;SDS011;3230;42.588;23.358;2023-05-10T10:55:14;11.40;;;8.40;;
6394;SDS011;3230;42.588;23.358;2023-05-10T11:02:44;16.20;;;9.93;;
6394;SDS011;3230;42.588;23.358;2023-05-10T11:10:33;11.87;;;7.70;;
6394;SDS011;3230;42.588;23.358;2023-05-10T11:13:02;11.00;;;8.23;;
6394;SDS011;3230;42.588;23.358;2023-05-10T11:15:33;11.90;;;8.83;;
6394;SDS011;3230;42.588;23.358;2023-05-10T11:20:44;10.80;;;8.10;;
6394;SDS011;3230;42.588;23.358;2023-05-10T11:23:15;12.90;;;8.87;;
6394;SDS011;3230;42.588;23.358;2023-05-10T11:25:42;13.85;;;9.73;;
6394;SDS011;3230;42.588;23.358;2023-05-10T11:28:09;13.97;;;9.40;;
6394;SDS011;3230;42.588;23.358;2023-05-10T11:30:36;13.03;;;8.67;;
6394;SDS011;3230;42.588;23.358;2023-05-10T11:33:03;15.90;;;9.93;;
6394;SDS011;3230;42.588;23.358;2023-05-10T11:35:28;12.57;;;8.47;;
6394;SDS011;3230;42.588;23.358;2023-05-10T11:37:53;14.17;;;9.23;;
6394;SDS011;3230;42.588;23.358;2023-05-10T11:40:21;19.00;;;11.60;;
6394;SDS011;3230;42.588;23.358;2023-05-10T11:42:49;16.83;;;9.30;;
6394;SDS011;3230;42.588;23.358;2023-05-10T11:45:15;13.47;;;8.57;;
6394;SDS011;3230;42.588;23.358;2023-05-10T11:47:40;11.33;;;8.10;;
6394;SDS011;3230;42.588;23.358;2023-05-10T11:50:08;13.23;;;9.15;;
6394;SDS011;3230;42.588;23.358;2023-05-10T11:52:36;16.13;;;9.80;;
6394;SDS011;3230;42.588;23.358;2023-05-10T11:55:05;18.50;;;11.32;;
6394;SDS011;3230;42.588;23.358;2023-05-10T11:57:30;17.93;;;11.07;;
6394;SDS011;3230;42.588;23.358;2023-05-10T11:59:56;15.07;;;10.20;;
6394;SDS011;3230;42.588;23.358;2023-05-10T12:02:22;16.00;;;10.10;;
6394;SDS011;3230;42.588;23.358;2023-05-10T12:04:48;19.33;;;11.40;;
6394;SDS011;3230;42.588;23.358;2023-05-10T12:07:15;15.70;;;10.63;;
6394;SDS011;3230;42.588;23.358;2023-05-10T12:09:44;16.77;;;11.10;;
6394;SDS011;3230;42.588;23.358;2023-05-10T12:12:10;18.73;;;11.97;;
6394;SDS011;3230;42.588;23.358;2023-05-10T12:14:40;28.83;;;15.63;;
6394;SDS011;3230;42.588;23.358;2023-05-10T12:17:06;14.17;;;9.47;;
6394;SDS011;3230;42.588;23.358;2023-05-10T12:19:39;14.57;;;10.05;;
6394;SDS011;3230;42.588;23.358;2023-05-10T12:22:06;27.30;;;15.23;;
6394;SDS011;3230;42.588;23.358;2023-05-10T12:24:35;17.10;;;10.73;;
6394;SDS011;3230;42.588;23.358;2023-05-10T12:27:05;19.93;;;11.87;;
6394;SDS011;3230;42.588;23.358;2023-05-10T12:29:33;32.83;;;16.93;;
6394;SDS011;3230;42.588;23.358;2023-05-10T12:31:58;24.07;;;14.20;;
6394;SDS011;3230;42.588;23.358;2023-05-10T12:34:32;22.40;;;12.70;;
6394;SDS011;3230;42.588;23.358;2023-05-10T12:37:00;31.73;;;18.60;;
6394;SDS011;3230;42.588;23.358;2023-05-10T12:39:26;21.17;;;11.67;;
6394;SDS011;3230;42.588;23.358;2023-05-10T12:41:51;21.23;;;11.33;;
6394;SDS011;3230;42.588;23.358;2023-05-10T12:44:17;17.07;;;10.43;;
6394;SDS011;3230;42.588;23.358;2023-05-10T12:46:43;21.87;;;11.07;;
6394;SDS011;3230;42.588;23.358;2023-05-10T12:49:09;19.13;;;11.07;;
6394;SDS011;3230;42.588;23.358;2023-05-10T12:51:34;21.00;;;12.60;;
6394;SDS011;3230;42.588;23.358;2023-05-10T12:54:00;25.50;;;17.00;;
6394;SDS011;3230;42.588;23.358;2023-05-10T12:56:27;22.23;;;13.00;;
6394;SDS011;3230;42.588;23.358;2023-05-10T12:58:52;16.70;;;10.40;;
6394;SDS011;3230;42.588;23.358;2023-05-10T13:01:18;21.90;;;10.97;;
6394;SDS011;3230;42.588;23.358;2023-05-10T13:03:44;21.97;;;12.63;;
6394;SDS011;3230;42.588;23.358;2023-05-10T13:06:09;16.67;;;10.50;;
6394;SDS011;3230;42.588;23.358;2023-05-10T13:08:35;18.60;;;11.83;;
6394;SDS011;3230;42.588;23.358;2023-05-10T13:11:02;17.17;;;11.50;;
6394;SDS011;3230;42.588;23.358;2023-05-10T13:13:28;21.70;;;12.47;;
6394;SDS011;3230;42.588;23.358;2023-05-10T13:15:53;16.70;;;11.30;;
6394;SDS011;3230;42.588;23.358;2023-05-10T13:18:19;18.00;;;11.50;;
6394;SDS011;3230;42.588;23.358;2023-05-10T13:20:45;18.55;;;11.40;;
6394;SDS011;3230;42.588;23.358;2023-05-10T13:23:11;21.13;;;13.20;;
6394;SDS011;3230;42.588;23.358;2023-05-10T13:25:36;21.90;;;13.10;;
6394;SDS011;3230;42.588;23.358;2023-05-10T13:28:01;24.33;;;11.50;;
6394;SDS011;3230;42.588;23.358;2023-05-10T13:30:27;25.83;;;12.93;;
6394;SDS011;3230;42.588;23.358;2023-05-10T13:32:54;27.37;;;15.13;;
6394;SDS011;3230;42.588;23.358;2023-05-10T13:35:19;19.40;;;12.30;;
6394;SDS011;3230;42.588;23.358;2023-05-10T13:37:45;19.97;;;11.00;;
6394;SDS011;3230;42.588;23.358;2023-05-10T13:40:10;21.40;;;11.30;;
6394;SDS011;3230;42.588;23.358;2023-05-10T13:42:36;21.70;;;12.60;;
6394;SDS011;3230;42.588;23.358;2023-05-10T13:45:02;25.03;;;10.23;;
6394;SDS011;3230;42.588;23.358;2023-05-10T13:47:28;14.30;;;9.00;;
6394;SDS011;3230;42.588;23.358;2023-05-10T13:49:53;17.80;;;10.30;;
6394;SDS011;3230;42.588;23.358;2023-05-10T13:52:19;15.47;;;9.60;;
6394;SDS011;3230;42.588;23.358;2023-05-10T13:54:44;21.80;;;10.27;;
6394;SDS011;3230;42.588;23.358;2023-05-10T13:57:10;22.03;;;12.33;;
6394;SDS011;3230;42.588;23.358;2023-05-10T13:59:37;24.27;;;13.60;;
6394;SDS011;3230;42.588;23.358;2023-05-10T14:02:03;15.37;;;10.93;;
6394;SDS011;3230;42.588;23.358;2023-05-10T14:04:28;15.70;;;10.47;;
6394;SDS011;3230;42.588;23.358;2023-05-10T14:06:54;16.77;;;9.63;;
6394;SDS011;3230;42.588;23.358;2023-05-10T14:09:20;15.60;;;9.90;;
6394;SDS011;3230;42.588;23.358;2023-05-10T14:11:45;17.77;;;10.90;;
6394;SDS011;3230;42.588;23.358;2023-05-10T14:14:11;18.70;;;10.67;;
6394;SDS011;3230;42.588;23.358;2023-05-10T14:16:41;19.95;;;12.27;;
6394;SDS011;3230;42.588;23.358;2023-05-10T14:19:08;14.23;;;9.20;;
6394;SDS011;3230;42.588;23.358;2023-05-10T14:21:33;16.70;;;12.03;;
6394;SDS011;3230;42.588;23.358;2023-05-10T14:23:59;14.13;;;9.30;;
6394;SDS011;3230;42.588;23.358;2023-05-10T14:26:25;13.57;;;9.03;;
6394;SDS011;3230;42.588;23.358;2023-05-10T14:28:51;16.35;;;10.38;;
6394;SDS011;3230;42.588;23.358;2023-05-10T14:31:16;14.73;;;9.97;;
6394;SDS011;3230;42.588;23.358;2023-05-10T14:33:44;18.40;;;10.67;;
6394;SDS011;3230;42.588;23.358;2023-05-10T14:36:09;19.03;;;10.27;;
6394;SDS011;3230;42.588;23.358;2023-05-10T14:38:35;20.00;;;11.57;;
6394;SDS011;3230;42.588;23.358;2023-05-10T14:41:00;16.23;;;10.97;;
6394;SDS011;3230;42.588;23.358;2023-05-10T14:43:26;38.90;;;20.03;;
6394;SDS011;3230;42.588;23.358;2023-05-10T14:45:52;27.47;;;15.07;;
6394;SDS011;3230;42.588;23.358;2023-05-10T14:48:17;16.67;;;11.57;;
6394;SDS011;3230;42.588;23.358;2023-05-10T14:50:43;17.50;;;9.77;;
6394;SDS011;3230;42.588;23.358;2023-05-10T14:53:10;15.17;;;9.43;;
6394;SDS011;3230;42.588;23.358;2023-05-10T14:55:35;15.53;;;10.77;;
6394;SDS011;3230;42.588;23.358;2023-05-10T14:58:02;24.87;;;13.97;;
6394;SDS011;3230;42.588;23.358;2023-05-10T15:00:28;18.30;;;11.33;;
6394;SDS011;3230;42.588;23.358;2023-05-10T15:02:54;16.70;;;11.13;;
6394;SDS011;3230;42.588;23.358;2023-05-10T15:05:20;17.80;;;11.67;;
6394;SDS011;3230;42.588;23.358;2023-05-10T15:07:45;19.33;;;10.37;;
6394;SDS011;3230;42.588;23.358;2023-05-10T15:10:11;20.57;;;13.40;;
6394;SDS011;3230;42.588;23.358;2023-05-10T15:12:36;26.03;;;14.60;;
6394;SDS011;3230;42.588;23.358;2023-05-10T15:15:02;24.70;;;13.97;;
6394;SDS011;3230;42.588;23.358;2023-05-10T15:17:28;24.70;;;14.70;;
6394;SDS011;3230;42.588;23.358;2023-05-10T15:19:54;18.90;;;11.30;;
6394;SDS011;3230;42.588;23.358;2023-05-10T15:22:19;22.07;;;12.87;;
6394;SDS011;3230;42.588;23.358;2023-05-10T15:24:46;22.20;;;14.13;;
6394;SDS011;3230;42.588;23.358;2023-05-10T15:27:11;17.10;;;12.30;;
6394;SDS011;3230;42.588;23.358;2023-05-10T15:29:36;27.23;;;16.77;;